sensor_id;sensor_type;location;lat;lon;timestamp;temperature;humidity
43249;DHT22;29216;51.248;6.808;2022-12-07T00:00:26;5.60;99.90
43249;DHT22;29216;51.248;6.808;2022-12-07T00:02:52;5.60;99.90
43249;DHT22;29216;51.248;6.808;2022-12-07T00:05:18;5.60;99.90
43249;DHT22;29216;51.248;6.808;2022-12-07T00:07:43;5.60;99.90
43249;DHT22;29216;51.248;6.808;2022-12-07T00:10:09;5.60;99.90
43249;DHT22;29216;51.248;6.808;2022-12-07T00:12:35;5.60;99.90
43249;DHT22;29216;51.248;6.808;2022-12-07T00:15:00;5.60;99.90
43249;DHT22;29216;51.248;6.808;2022-12-07T00:17:26;5.60;99.90
43249;DHT22;29216;51.248;6.808;2022-12-07T00:19:51;5.60;99.90
43249;DHT22;29216;51.248;6.808;2022-12-07T00:22:17;5.50;99.90
43249;DHT22;29216;51.248;6.808;2022-12-07T00:24:43;5.50;99.90
43249;DHT22;29216;51.248;6.808;2022-12-07T00:27:08;5.60;99.90
43249;DHT22;29216;51.248;6.808;2022-12-07T00:29:34;5.60;99.90
43249;DHT22;29216;51.248;6.808;2022-12-07T00:32:02;5.70;99.90
43249;DHT22;29216;51.248;6.808;2022-12-07T00:34:28;5.70;99.90
43249;DHT22;29216;51.248;6.808;2022-12-07T00:36:54;5.70;99.90
43249;DHT22;29216;51.248;6.808;2022-12-07T00:39:19;5.80;99.90
43249;DHT22;29216;51.248;6.808;2022-12-07T00:41:45;5.80;99.90
43249;DHT22;29216;51.248;6.808;2022-12-07T00:44:11;5.80;99.90
43249;DHT22;29216;51.248;6.808;2022-12-07T00:46:37;5.90;99.90
43249;DHT22;29216;51.248;6.808;2022-12-07T00:49:03;5.80;99.90
43249;DHT22;29216;51.248;6.808;2022-12-07T00:51:28;5.80;99.90
43249;DHT22;29216;51.248;6.808;2022-12-07T00:53:54;5.80;99.90
43249;DHT22;29216;51.248;6.808;2022-12-07T00:56:25;5.80;99.90
43249;DHT22;29216;51.248;6.808;2022-12-07T01:01:18;5.90;99.90
43249;DHT22;29216;51.248;6.808;2022-12-07T01:03:43;5.80;99.90
43249;DHT22;29216;51.248;6.808;2022-12-07T01:06:09;5.90;99.90
43249;DHT22;29216;51.248;6.808;2022-12-07T01:08:38;5.90;99.90
43249;DHT22;29216;51.248;6.808;2022-12-07T01:11:07;5.90;99.90
43249;DHT22;29216;51.248;6.808;2022-12-07T01:13:34;5.90;99.90
43249;DHT22;29216;51.248;6.808;2022-12-07T01:16:02;5.80;99.90
43249;DHT22;29216;51.248;6.808;2022-12-07T01:18:29;5.80;99.90
43249;DHT22;29216;51.248;6.808;2022-12-07T01:21:07;5.80;99.90
43249;DHT22;29216;51.248;6.808;2022-12-07T01:23:34;5.80;99.90
43249;DHT22;29216;51.248;6.808;2022-12-07T01:26:06;5.80;99.90
43249;DHT22;29216;51.248;6.808;2022-12-07T01:28:32;5.90;99.90
43249;DHT22;29216;51.248;6.808;2022-12-07T01:31:06;5.90;99.90
43249;DHT22;29216;51.248;6.808;2022-12-07T01:33:34;5.90;99.90
43249;DHT22;29216;51.248;6.808;2022-12-07T01:36:21;5.90;99.90
43249;DHT22;29216;51.248;6.808;2022-12-07T01:38:49;5.90;99.90
43249;DHT22;29216;51.248;6.808;2022-12-07T01:41:17;5.90;99.90
43249;DHT22;29216;51.248;6.808;2022-12-07T01:46:42;5.90;99.90
43249;DHT22;29216;51.248;6.808;2022-12-07T01:49:14;5.80;99.90
43249;DHT22;29216;51.248;6.808;2022-12-07T01:51:41;5.80;99.90
43249;DHT22;29216;51.248;6.808;2022-12-07T01:54:10;5.80;99.90
43249;DHT22;29216;51.248;6.808;2022-12-07T01:56:37;5.80;99.90
43249;DHT22;29216;51.248;6.808;2022-12-07T01:59:04;5.70;99.90
43249;DHT22;29216;51.248;6.808;2022-12-07T02:01:30;5.70;99.90
43249;DHT22;29216;51.248;6.808;2022-12-07T02:03:56;5.70;99.90
43249;DHT22;29216;51.248;6.808;2022-12-07T02:06:24;5.70;99.90
43249;DHT22;29216;51.248;6.808;2022-12-07T02:08:51;5.60;99.90
43249;DHT22;29216;51.248;6.808;2022-12-07T02:11:18;5.60;99.90
43249;DHT22;29216;51.248;6.808;2022-12-07T02:13:45;5.60;99.90
43249;DHT22;29216;51.248;6.808;2022-12-07T02:21:36;5.80;99.90
43249;DHT22;29216;51.248;6.808;2022-12-07T02:29:50;5.70;99.90
43249;DHT22;29216;51.248;6.808;2022-12-07T02:38:20;5.60;99.90
43249;DHT22;29216;51.248;6.808;2022-12-07T02:41:00;5.50;99.90
43249;DHT22;29216;51.248;6.808;2022-12-07T02:43:34;5.50;99.90
43249;DHT22;29216;51.248;6.808;2022-12-07T02:46:04;5.50;99.90
43249;DHT22;29216;51.248;6.808;2022-12-07T02:48:33;5.50;99.90
43249;DHT22;29216;51.248;6.808;2022-12-07T02:50:59;5.50;99.90
43249;DHT22;29216;51.248;6.808;2022-12-07T02:53:36;5.50;99.90
43249;DHT22;29216;51.248;6.808;2022-12-07T02:56:07;5.60;99.90
43249;DHT22;29216;51.248;6.808;2022-12-07T03:01:35;5.60;99.90
43249;DHT22;29216;51.248;6.808;2022-12-07T03:06:43;5.70;99.90
43249;DHT22;29216;51.248;6.808;2022-12-07T03:09:14;5.70;99.90
43249;DHT22;29216;51.248;6.808;2022-12-07T03:11:55;5.70;99.90
43249;DHT22;29216;51.248;6.808;2022-12-07T03:14:31;5.70;99.90
43249;DHT22;29216;51.248;6.808;2022-12-07T03:17:26;5.70;99.90
43249;DHT22;29216;51.248;6.808;2022-12-07T03:19:56;5.60;99.90
43249;DHT22;29216;51.248;6.808;2022-12-07T03:22:23;5.60;99.90
43249;DHT22;29216;51.248;6.808;2022-12-07T03:24:57;5.60;99.90
43249;DHT22;29216;51.248;6.808;2022-12-07T03:27:35;5.60;99.90
43249;DHT22;29216;51.248;6.808;2022-12-07T03:30:15;5.70;99.90
43249;DHT22;29216;51.248;6.808;2022-12-07T03:32:50;5.70;99.90
43249;DHT22;29216;51.248;6.808;2022-12-07T03:40:42;5.60;99.90
43249;DHT22;29216;51.248;6.808;2022-12-07T03:43:09;5.60;99.90
43249;DHT22;29216;51.248;6.808;2022-12-07T03:45:44;5.60;99.90
43249;DHT22;29216;51.248;6.808;2022-12-07T03:48:33;5.60;99.90
43249;DHT22;29216;51.248;6.808;2022-12-07T03:51:09;5.60;99.90
43249;DHT22;29216;51.248;6.808;2022-12-07T03:53:46;5.50;99.90
43249;DHT22;29216;51.248;6.808;2022-12-07T03:56:14;5.60;99.90
43249;DHT22;29216;51.248;6.808;2022-12-07T03:58:41;5.50;99.90
43249;DHT22;29216;51.248;6.808;2022-12-07T04:01:07;5.50;99.90
43249;DHT22;29216;51.248;6.808;2022-12-07T04:03:33;5.50;99.90
43249;DHT22;29216;51.248;6.808;2022-12-07T04:05:59;5.50;99.90
43249;DHT22;29216;51.248;6.808;2022-12-07T04:08:25;5.50;99.90
43249;DHT22;29216;51.248;6.808;2022-12-07T04:10:50;5.50;99.90
43249;DHT22;29216;51.248;6.808;2022-12-07T04:13:16;5.50;99.90
43249;DHT22;29216;51.248;6.808;2022-12-07T04:15:42;5.50;99.90
43249;DHT22;29216;51.248;6.808;2022-12-07T04:18:08;5.50;99.90
43249;DHT22;29216;51.248;6.808;2022-12-07T04:20:33;5.50;99.90
43249;DHT22;29216;51.248;6.808;2022-12-07T04:22:59;5.50;99.90
43249;DHT22;29216;51.248;6.808;2022-12-07T04:25:25;5.50;99.90
43249;DHT22;29216;51.248;6.808;2022-12-07T04:27:51;5.50;99.90
43249;DHT22;29216;51.248;6.808;2022-12-07T04:30:16;5.50;99.90
43249;DHT22;29216;51.248;6.808;2022-12-07T04:32:42;5.50;99.90
43249;DHT22;29216;51.248;6.808;2022-12-07T04:35:08;5.60;99.90
43249;DHT22;29216;51.248;6.808;2022-12-07T04:37:34;5.60;99.90
43249;DHT22;29216;51.248;6.808;2022-12-07T04:40:00;5.60;99.90
43249;DHT22;29216;51.248;6.808;2022-12-07T04:42:26;5.50;99.90
43249;DHT22;29216;51.248;6.808;2022-12-07T04:44:51;5.50;99.90
43249;DHT22;29216;51.248;6.808;2022-12-07T04:47:17;5.50;99.90
43249;DHT22;29216;51.248;6.808;2022-12-07T04:49:43;5.50;99.90
43249;DHT22;29216;51.248;6.808;2022-12-07T04:52:08;5.50;99.90
43249;DHT22;29216;51.248;6.808;2022-12-07T04:54:34;5.50;99.90
43249;DHT22;29216;51.248;6.808;2022-12-07T04:57:00;5.40;99.90
43249;DHT22;29216;51.248;6.808;2022-12-07T04:59:26;5.40;99.90
43249;DHT22;29216;51.248;6.808;2022-12-07T05:01:51;5.30;99.90
43249;DHT22;29216;51.248;6.808;2022-12-07T05:04:17;5.20;99.90
43249;DHT22;29216;51.248;6.808;2022-12-07T05:06:43;5.20;99.90
43249;DHT22;29216;51.248;6.808;2022-12-07T05:09:09;5.30;99.90
43249;DHT22;29216;51.248;6.808;2022-12-07T05:11:35;5.30;99.90
43249;DHT22;29216;51.248;6.808;2022-12-07T05:14:15;5.20;99.90
43249;DHT22;29216;51.248;6.808;2022-12-07T05:16:42;5.20;99.90
43249;DHT22;29216;51.248;6.808;2022-12-07T05:19:09;5.20;99.90
43249;DHT22;29216;51.248;6.808;2022-12-07T05:21:36;5.20;99.90
43249;DHT22;29216;51.248;6.808;2022-12-07T05:24:02;5.20;99.90
43249;DHT22;29216;51.248;6.808;2022-12-07T05:26:28;5.20;99.90
43249;DHT22;29216;51.248;6.808;2022-12-07T05:28:55;5.10;99.90
43249;DHT22;29216;51.248;6.808;2022-12-07T05:31:21;5.10;99.90
43249;DHT22;29216;51.248;6.808;2022-12-07T05:33:47;5.10;99.90
43249;DHT22;29216;51.248;6.808;2022-12-07T05:36:13;5.10;99.90
43249;DHT22;29216;51.248;6.808;2022-12-07T05:38:39;5.20;99.90
43249;DHT22;29216;51.248;6.808;2022-12-07T05:41:06;5.20;99.90
43249;DHT22;29216;51.248;6.808;2022-12-07T05:43:32;5.20;99.90
43249;DHT22;29216;51.248;6.808;2022-12-07T05:45:58;5.20;99.90
43249;DHT22;29216;51.248;6.808;2022-12-07T05:48:25;5.10;99.90
43249;DHT22;29216;51.248;6.808;2022-12-07T05:50:51;5.10;99.90
43249;DHT22;29216;51.248;6.808;2022-12-07T05:53:17;5.10;99.90
43249;DHT22;29216;51.248;6.808;2022-12-07T05:55:43;5.10;99.90
43249;DHT22;29216;51.248;6.808;2022-12-07T05:58:09;5.10;99.90
43249;DHT22;29216;51.248;6.808;2022-12-07T06:00:57;5.00;99.90
43249;DHT22;29216;51.248;6.808;2022-12-07T06:03:22;5.10;99.90
43249;DHT22;29216;51.248;6.808;2022-12-07T06:05:48;5.10;99.90
43249;DHT22;29216;51.248;6.808;2022-12-07T06:08:14;5.00;99.90
43249;DHT22;29216;51.248;6.808;2022-12-07T06:10:40;5.00;99.90
43249;DHT22;29216;51.248;6.808;2022-12-07T06:13:07;5.00;99.90
43249;DHT22;29216;51.248;6.808;2022-12-07T06:15:35;5.00;99.90
43249;DHT22;29216;51.248;6.808;2022-12-07T06:18:01;5.00;99.90
43249;DHT22;29216;51.248;6.808;2022-12-07T06:20:27;5.10;99.90
43249;DHT22;29216;51.248;6.808;2022-12-07T06:22:53;5.00;99.90
43249;DHT22;29216;51.248;6.808;2022-12-07T06:25:18;5.00;99.90
43249;DHT22;29216;51.248;6.808;2022-12-07T06:27:44;5.10;99.90
43249;DHT22;29216;51.248;6.808;2022-12-07T06:30:10;5.10;99.90
43249;DHT22;29216;51.248;6.808;2022-12-07T06:32:36;5.20;99.90
43249;DHT22;29216;51.248;6.808;2022-12-07T06:35:03;5.10;99.90
43249;DHT22;29216;51.248;6.808;2022-12-07T06:37:28;5.20;99.90
43249;DHT22;29216;51.248;6.808;2022-12-07T06:39:54;5.20;99.90
43249;DHT22;29216;51.248;6.808;2022-12-07T06:42:20;5.20;99.90
43249;DHT22;29216;51.248;6.808;2022-12-07T06:44:46;5.20;99.90
43249;DHT22;29216;51.248;6.808;2022-12-07T06:47:11;5.20;99.90
43249;DHT22;29216;51.248;6.808;2022-12-07T06:49:37;5.20;99.90
43249;DHT22;29216;51.248;6.808;2022-12-07T06:52:03;5.20;99.90
43249;DHT22;29216;51.248;6.808;2022-12-07T06:54:30;5.10;99.90
43249;DHT22;29216;51.248;6.808;2022-12-07T06:56:56;5.10;99.90
43249;DHT22;29216;51.248;6.808;2022-12-07T06:59:22;5.20;99.90
43249;DHT22;29216;51.248;6.808;2022-12-07T07:01:48;5.10;99.90
43249;DHT22;29216;51.248;6.808;2022-12-07T07:04:13;5.10;99.90
43249;DHT22;29216;51.248;6.808;2022-12-07T07:06:39;5.00;99.90
43249;DHT22;29216;51.248;6.808;2022-12-07T07:09:05;5.00;99.90
43249;DHT22;29216;51.248;6.808;2022-12-07T07:11:31;5.00;99.90
43249;DHT22;29216;51.248;6.808;2022-12-07T07:13:56;5.00;99.90
43249;DHT22;29216;51.248;6.808;2022-12-07T07:16:28;5.00;99.90
43249;DHT22;29216;51.248;6.808;2022-12-07T07:18:55;5.00;99.90
43249;DHT22;29216;51.248;6.808;2022-12-07T07:21:21;4.90;99.90
43249;DHT22;29216;51.248;6.808;2022-12-07T07:23:46;4.80;99.90
43249;DHT22;29216;51.248;6.808;2022-12-07T07:26:12;4.80;99.90
43249;DHT22;29216;51.248;6.808;2022-12-07T07:28:38;4.70;99.90
43249;DHT22;29216;51.248;6.808;2022-12-07T07:31:04;4.70;99.90
43249;DHT22;29216;51.248;6.808;2022-12-07T07:33:30;4.80;99.90
43249;DHT22;29216;51.248;6.808;2022-12-07T07:35:56;4.80;99.90
43249;DHT22;29216;51.248;6.808;2022-12-07T07:38:21;4.90;99.90
43249;DHT22;29216;51.248;6.808;2022-12-07T07:40:47;5.00;99.90
43249;DHT22;29216;51.248;6.808;2022-12-07T07:43:13;5.00;99.90
43249;DHT22;29216;51.248;6.808;2022-12-07T07:45:38;5.10;99.90
43249;DHT22;29216;51.248;6.808;2022-12-07T07:48:07;5.00;99.90
43249;DHT22;29216;51.248;6.808;2022-12-07T07:50:33;5.00;99.90
43249;DHT22;29216;51.248;6.808;2022-12-07T07:52:59;4.90;99.90
43249;DHT22;29216;51.248;6.808;2022-12-07T07:55:24;4.80;99.90
43249;DHT22;29216;51.248;6.808;2022-12-07T07:57:50;4.80;99.90
43249;DHT22;29216;51.248;6.808;2022-12-07T08:00:16;4.70;99.90
43249;DHT22;29216;51.248;6.808;2022-12-07T08:02:43;4.70;99.90
43249;DHT22;29216;51.248;6.808;2022-12-07T08:05:10;4.60;99.90
43249;DHT22;29216;51.248;6.808;2022-12-07T08:07:37;4.50;99.90
43249;DHT22;29216;51.248;6.808;2022-12-07T08:10:03;4.60;99.90
43249;DHT22;29216;51.248;6.808;2022-12-07T08:12:29;4.50;99.90
43249;DHT22;29216;51.248;6.808;2022-12-07T08:14:54;4.60;99.90
43249;DHT22;29216;51.248;6.808;2022-12-07T08:17:23;4.60;99.90
43249;DHT22;29216;51.248;6.808;2022-12-07T08:19:49;4.70;99.90
43249;DHT22;29216;51.248;6.808;2022-12-07T08:22:14;4.80;99.90
43249;DHT22;29216;51.248;6.808;2022-12-07T08:24:40;5.00;99.90
43249;DHT22;29216;51.248;6.808;2022-12-07T08:27:06;5.10;99.90
43249;DHT22;29216;51.248;6.808;2022-12-07T08:29:32;5.20;99.90
43249;DHT22;29216;51.248;6.808;2022-12-07T08:31:57;5.30;99.90
43249;DHT22;29216;51.248;6.808;2022-12-07T08:34:23;5.40;99.90
43249;DHT22;29216;51.248;6.808;2022-12-07T08:36:49;5.40;99.90
43249;DHT22;29216;51.248;6.808;2022-12-07T08:39:14;5.50;99.90
43249;DHT22;29216;51.248;6.808;2022-12-07T08:41:40;5.50;99.90
43249;DHT22;29216;51.248;6.808;2022-12-07T08:44:06;5.50;99.90
43249;DHT22;29216;51.248;6.808;2022-12-07T08:46:56;5.50;99.90
43249;DHT22;29216;51.248;6.808;2022-12-07T08:49:27;5.60;99.90
43249;DHT22;29216;51.248;6.808;2022-12-07T08:51:55;5.60;99.90
43249;DHT22;29216;51.248;6.808;2022-12-07T08:54:21;5.50;99.90
43249;DHT22;29216;51.248;6.808;2022-12-07T08:56:48;5.40;99.90
43249;DHT22;29216;51.248;6.808;2022-12-07T08:59:16;5.40;99.90
43249;DHT22;29216;51.248;6.808;2022-12-07T09:01:42;5.30;99.90
43249;DHT22;29216;51.248;6.808;2022-12-07T09:04:08;5.20;99.90
43249;DHT22;29216;51.248;6.808;2022-12-07T09:06:34;5.20;99.90
43249;DHT22;29216;51.248;6.808;2022-12-07T09:09:01;5.10;99.90
43249;DHT22;29216;51.248;6.808;2022-12-07T09:11:27;5.00;99.90
43249;DHT22;29216;51.248;6.808;2022-12-07T09:13:53;4.90;99.90
43249;DHT22;29216;51.248;6.808;2022-12-07T09:16:19;4.90;99.90
43249;DHT22;29216;51.248;6.808;2022-12-07T09:18:45;4.90;99.90
43249;DHT22;29216;51.248;6.808;2022-12-07T09:21:10;5.00;99.90
43249;DHT22;29216;51.248;6.808;2022-12-07T09:23:36;5.10;99.90
43249;DHT22;29216;51.248;6.808;2022-12-07T09:26:03;5.20;99.90
43249;DHT22;29216;51.248;6.808;2022-12-07T09:28:33;5.30;99.90
43249;DHT22;29216;51.248;6.808;2022-12-07T09:30:59;5.40;99.90
43249;DHT22;29216;51.248;6.808;2022-12-07T09:33:25;5.50;99.90
43249;DHT22;29216;51.248;6.808;2022-12-07T09:35:51;5.50;99.90
43249;DHT22;29216;51.248;6.808;2022-12-07T09:38:19;5.50;99.90
43249;DHT22;29216;51.248;6.808;2022-12-07T09:40:46;5.50;99.90
43249;DHT22;29216;51.248;6.808;2022-12-07T09:43:23;5.50;99.90
43249;DHT22;29216;51.248;6.808;2022-12-07T09:45:54;5.60;99.90
43249;DHT22;29216;51.248;6.808;2022-12-07T09:48:47;5.70;99.90
43249;DHT22;29216;51.248;6.808;2022-12-07T09:51:20;6.00;99.90
43249;DHT22;29216;51.248;6.808;2022-12-07T09:53:47;6.10;99.90
43249;DHT22;29216;51.248;6.808;2022-12-07T09:56:15;6.20;99.90
43249;DHT22;29216;51.248;6.808;2022-12-07T09:58:42;6.40;99.90
43249;DHT22;29216;51.248;6.808;2022-12-07T10:03:38;6.70;99.90
43249;DHT22;29216;51.248;6.808;2022-12-07T10:06:05;6.70;99.90
43249;DHT22;29216;51.248;6.808;2022-12-07T10:08:31;6.80;99.90
43249;DHT22;29216;51.248;6.808;2022-12-07T10:10:57;6.80;99.90
43249;DHT22;29216;51.248;6.808;2022-12-07T10:13:39;6.80;99.90
43249;DHT22;29216;51.248;6.808;2022-12-07T10:16:06;6.80;99.90
43249;DHT22;29216;51.248;6.808;2022-12-07T10:18:34;6.80;99.90
43249;DHT22;29216;51.248;6.808;2022-12-07T10:21:16;6.80;99.90
43249;DHT22;29216;51.248;6.808;2022-12-07T10:24:02;6.90;99.90
43249;DHT22;29216;51.248;6.808;2022-12-07T10:26:33;7.00;99.90
43249;DHT22;29216;51.248;6.808;2022-12-07T10:29:04;7.00;99.90
43249;DHT22;29216;51.248;6.808;2022-12-07T10:31:39;7.10;99.90
43249;DHT22;29216;51.248;6.808;2022-12-07T10:34:29;7.10;99.60
43249;DHT22;29216;51.248;6.808;2022-12-07T10:37:14;7.10;99.70
43249;DHT22;29216;51.248;6.808;2022-12-07T10:39:48;7.10;96.00
43249;DHT22;29216;51.248;6.808;2022-12-07T10:42:26;7.10;99.60
43249;DHT22;29216;51.248;6.808;2022-12-07T10:48:10;7.20;98.20
43249;DHT22;29216;51.248;6.808;2022-12-07T11:01:29;6.80;99.90
43249;DHT22;29216;51.248;6.808;2022-12-07T11:06:55;6.70;99.90
43249;DHT22;29216;51.248;6.808;2022-12-07T11:22:55;6.80;97.90
43249;DHT22;29216;51.248;6.808;2022-12-07T11:25:39;6.80;98.40
43249;DHT22;29216;51.248;6.808;2022-12-07T11:28:22;6.90;96.70
43249;DHT22;29216;51.248;6.808;2022-12-07T11:36:50;7.30;92.00
43249;DHT22;29216;51.248;6.808;2022-12-07T11:39:26;7.40;90.00
43249;DHT22;29216;51.248;6.808;2022-12-07T11:41:57;7.40;83.00
43249;DHT22;29216;51.248;6.808;2022-12-07T11:45:13;7.40;86.30
43249;DHT22;29216;51.248;6.808;2022-12-07T11:47:18;7.40;82.70
43249;DHT22;29216;51.248;6.808;2022-12-07T11:49:54;7.50;81.90
43249;DHT22;29216;51.248;6.808;2022-12-07T11:52:53;7.70;84.90
43249;DHT22;29216;51.248;6.808;2022-12-07T11:55:24;7.90;64.40
43249;DHT22;29216;51.248;6.808;2022-12-07T12:00:42;7.90;54.20
43249;DHT22;29216;51.248;6.808;2022-12-07T12:03:12;7.90;66.70
43249;DHT22;29216;51.248;6.808;2022-12-07T12:05:39;7.90;68.50
43249;DHT22;29216;51.248;6.808;2022-12-07T12:08:11;7.90;77.60
43249;DHT22;29216;51.248;6.808;2022-12-07T12:19:30;8.10;61.10
43249;DHT22;29216;51.248;6.808;2022-12-07T12:22:17;8.10;50.00
43249;DHT22;29216;51.248;6.808;2022-12-07T12:24:46;8.10;59.00
43249;DHT22;29216;51.248;6.808;2022-12-07T12:27:35;8.10;52.90
43249;DHT22;29216;51.248;6.808;2022-12-07T12:30:23;8.10;55.30
43249;DHT22;29216;51.248;6.808;2022-12-07T12:32:50;8.10;66.30
43249;DHT22;29216;51.248;6.808;2022-12-07T12:35:32;8.10;50.00
43249;DHT22;29216;51.248;6.808;2022-12-07T12:38:29;8.00;50.60
43249;DHT22;29216;51.248;6.808;2022-12-07T12:40:56;7.90;50.90
43249;DHT22;29216;51.248;6.808;2022-12-07T12:43:45;8.00;57.20
43249;DHT22;29216;51.248;6.808;2022-12-07T12:51:47;7.90;62.50
43249;DHT22;29216;51.248;6.808;2022-12-07T12:59:28;8.00;57.50
43249;DHT22;29216;51.248;6.808;2022-12-07T13:04:51;8.00;62.30
43249;DHT22;29216;51.248;6.808;2022-12-07T13:10:28;7.90;65.80
43249;DHT22;29216;51.248;6.808;2022-12-07T13:16:45;7.90;74.00
43249;DHT22;29216;51.248;6.808;2022-12-07T13:18:40;7.80;74.90
43249;DHT22;29216;51.248;6.808;2022-12-07T13:26:41;7.80;77.70
43249;DHT22;29216;51.248;6.808;2022-12-07T13:29:14;7.80;67.70
43249;DHT22;29216;51.248;6.808;2022-12-07T13:31:43;7.80;54.40
43249;DHT22;29216;51.248;6.808;2022-12-07T13:37:04;7.70;47.10
43249;DHT22;29216;51.248;6.808;2022-12-07T13:39:48;7.70;48.70
43249;DHT22;29216;51.248;6.808;2022-12-07T13:42:34;7.60;54.30
43249;DHT22;29216;51.248;6.808;2022-12-07T13:45:25;7.60;71.60
43249;DHT22;29216;51.248;6.808;2022-12-07T13:50:57;7.60;49.00
43249;DHT22;29216;51.248;6.808;2022-12-07T13:53:23;7.60;49.60
43249;DHT22;29216;51.248;6.808;2022-12-07T13:55:49;7.50;57.80
43249;DHT22;29216;51.248;6.808;2022-12-07T13:58:16;7.50;68.40
43249;DHT22;29216;51.248;6.808;2022-12-07T14:00:42;7.50;61.00
43249;DHT22;29216;51.248;6.808;2022-12-07T14:05:37;7.50;53.50
43249;DHT22;29216;51.248;6.808;2022-12-07T14:13:35;7.50;68.90
43249;DHT22;29216;51.248;6.808;2022-12-07T14:16:03;7.40;64.30
43249;DHT22;29216;51.248;6.808;2022-12-07T14:18:41;7.40;74.30
43249;DHT22;29216;51.248;6.808;2022-12-07T14:23:37;7.30;54.30
43249;DHT22;29216;51.248;6.808;2022-12-07T14:26:16;7.30;55.10
43249;DHT22;29216;51.248;6.808;2022-12-07T14:28:44;7.30;55.00
43249;DHT22;29216;51.248;6.808;2022-12-07T14:31:12;7.30;54.70
43249;DHT22;29216;51.248;6.808;2022-12-07T14:33:42;7.20;59.30
43249;DHT22;29216;51.248;6.808;2022-12-07T14:36:13;7.20;65.20
43249;DHT22;29216;51.248;6.808;2022-12-07T14:38:40;7.10;72.00
43249;DHT22;29216;51.248;6.808;2022-12-07T14:41:12;7.10;77.00
43249;DHT22;29216;51.248;6.808;2022-12-07T14:43:58;7.10;83.10
43249;DHT22;29216;51.248;6.808;2022-12-07T14:46:24;7.00;80.10
43249;DHT22;29216;51.248;6.808;2022-12-07T14:48:50;7.00;84.40
43249;DHT22;29216;51.248;6.808;2022-12-07T14:51:16;7.00;83.00
43249;DHT22;29216;51.248;6.808;2022-12-07T14:53:46;6.90;85.80
43249;DHT22;29216;51.248;6.808;2022-12-07T14:56:12;6.90;89.80
43249;DHT22;29216;51.248;6.808;2022-12-07T14:58:38;6.80;90.80
43249;DHT22;29216;51.248;6.808;2022-12-07T15:01:04;6.80;94.90
43249;DHT22;29216;51.248;6.808;2022-12-07T15:03:30;6.80;91.30
43249;DHT22;29216;51.248;6.808;2022-12-07T15:05:56;6.70;92.00
43249;DHT22;29216;51.248;6.808;2022-12-07T15:08:22;6.60;96.20
43249;DHT22;29216;51.248;6.808;2022-12-07T15:10:47;6.50;98.50
43249;DHT22;29216;51.248;6.808;2022-12-07T15:13:13;6.50;99.90
43249;DHT22;29216;51.248;6.808;2022-12-07T15:15:57;6.50;99.90
43249;DHT22;29216;51.248;6.808;2022-12-07T15:18:23;6.40;99.90
43249;DHT22;29216;51.248;6.808;2022-12-07T15:20:49;6.40;99.90
43249;DHT22;29216;51.248;6.808;2022-12-07T15:23:15;6.40;99.90
43249;DHT22;29216;51.248;6.808;2022-12-07T15:25:42;6.40;99.90
43249;DHT22;29216;51.248;6.808;2022-12-07T15:28:08;6.30;99.90
43249;DHT22;29216;51.248;6.808;2022-12-07T15:30:33;6.30;99.90
43249;DHT22;29216;51.248;6.808;2022-12-07T15:32:59;6.30;99.90
43249;DHT22;29216;51.248;6.808;2022-12-07T15:35:25;6.30;99.90
43249;DHT22;29216;51.248;6.808;2022-12-07T15:37:51;6.30;99.90
43249;DHT22;29216;51.248;6.808;2022-12-07T15:40:16;6.40;99.90
43249;DHT22;29216;51.248;6.808;2022-12-07T15:42:42;6.40;99.90
43249;DHT22;29216;51.248;6.808;2022-12-07T15:45:10;6.50;99.90
43249;DHT22;29216;51.248;6.808;2022-12-07T15:47:43;6.50;99.90
43249;DHT22;29216;51.248;6.808;2022-12-07T15:50:14;6.50;99.50
43249;DHT22;29216;51.248;6.808;2022-12-07T15:52:41;6.50;99.90
43249;DHT22;29216;51.248;6.808;2022-12-07T15:55:08;6.50;99.90
43249;DHT22;29216;51.248;6.808;2022-12-07T15:57:36;6.50;99.30
43249;DHT22;29216;51.248;6.808;2022-12-07T16:00:07;6.50;99.90
43249;DHT22;29216;51.248;6.808;2022-12-07T16:02:34;6.60;98.60
43249;DHT22;29216;51.248;6.808;2022-12-07T16:05:00;6.50;99.00
43249;DHT22;29216;51.248;6.808;2022-12-07T16:07:25;6.40;99.10
43249;DHT22;29216;51.248;6.808;2022-12-07T16:09:51;6.40;99.90
43249;DHT22;29216;51.248;6.808;2022-12-07T16:12:17;6.40;99.90
43249;DHT22;29216;51.248;6.808;2022-12-07T16:14:43;6.30;99.90
43249;DHT22;29216;51.248;6.808;2022-12-07T16:17:09;6.30;99.90
43249;DHT22;29216;51.248;6.808;2022-12-07T16:19:36;6.20;99.90
43249;DHT22;29216;51.248;6.808;2022-12-07T16:22:02;6.20;99.90
43249;DHT22;29216;51.248;6.808;2022-12-07T16:24:28;6.20;99.90
43249;DHT22;29216;51.248;6.808;2022-12-07T16:26:54;6.20;99.90
43249;DHT22;29216;51.248;6.808;2022-12-07T16:29:21;6.20;99.90
43249;DHT22;29216;51.248;6.808;2022-12-07T16:31:48;6.20;99.90
43249;DHT22;29216;51.248;6.808;2022-12-07T16:34:14;6.20;99.90
43249;DHT22;29216;51.248;6.808;2022-12-07T16:36:40;6.20;99.90
43249;DHT22;29216;51.248;6.808;2022-12-07T16:39:06;6.20;99.90
43249;DHT22;29216;51.248;6.808;2022-12-07T16:41:32;6.10;99.90
43249;DHT22;29216;51.248;6.808;2022-12-07T16:44:05;6.10;99.90
43249;DHT22;29216;51.248;6.808;2022-12-07T16:46:33;6.10;99.90
43249;DHT22;29216;51.248;6.808;2022-12-07T16:48:59;6.00;99.90
43249;DHT22;29216;51.248;6.808;2022-12-07T16:51:24;6.00;99.90
43249;DHT22;29216;51.248;6.808;2022-12-07T16:53:52;5.90;99.90
43249;DHT22;29216;51.248;6.808;2022-12-07T16:56:19;5.90;99.90
43249;DHT22;29216;51.248;6.808;2022-12-07T16:58:45;6.00;99.90
43249;DHT22;29216;51.248;6.808;2022-12-07T17:01:13;5.90;99.90
43249;DHT22;29216;51.248;6.808;2022-12-07T17:03:40;5.90;99.90
43249;DHT22;29216;51.248;6.808;2022-12-07T17:06:22;5.90;99.90
43249;DHT22;29216;51.248;6.808;2022-12-07T17:08:49;6.00;99.90
43249;DHT22;29216;51.248;6.808;2022-12-07T17:11:24;6.10;99.90
43249;DHT22;29216;51.248;6.808;2022-12-07T17:13:50;6.00;99.90
43249;DHT22;29216;51.248;6.808;2022-12-07T17:16:35;6.00;99.90
43249;DHT22;29216;51.248;6.808;2022-12-07T17:19:04;6.00;99.90
43249;DHT22;29216;51.248;6.808;2022-12-07T17:21:31;6.00;99.90
43249;DHT22;29216;51.248;6.808;2022-12-07T17:23:59;6.00;99.90
43249;DHT22;29216;51.248;6.808;2022-12-07T17:26:26;6.10;99.90
43249;DHT22;29216;51.248;6.808;2022-12-07T17:28:53;6.10;99.90
43249;DHT22;29216;51.248;6.808;2022-12-07T17:31:21;6.00;99.90
43249;DHT22;29216;51.248;6.808;2022-12-07T17:33:47;6.10;99.90
43249;DHT22;29216;51.248;6.808;2022-12-07T17:36:17;6.00;99.90
43249;DHT22;29216;51.248;6.808;2022-12-07T17:38:44;6.00;99.90
43249;DHT22;29216;51.248;6.808;2022-12-07T17:43:59;6.00;99.90
43249;DHT22;29216;51.248;6.808;2022-12-07T17:46:25;5.90;99.90
43249;DHT22;29216;51.248;6.808;2022-12-07T17:48:53;5.90;99.90
43249;DHT22;29216;51.248;6.808;2022-12-07T17:51:19;5.90;99.90
43249;DHT22;29216;51.248;6.808;2022-12-07T17:54:04;5.90;99.90
43249;DHT22;29216;51.248;6.808;2022-12-07T17:56:29;5.90;99.90
43249;DHT22;29216;51.248;6.808;2022-12-07T17:58:55;5.90;99.90
43249;DHT22;29216;51.248;6.808;2022-12-07T18:01:20;5.90;99.90
43249;DHT22;29216;51.248;6.808;2022-12-07T18:03:46;5.90;99.90